Terminal Aerodrome Forecast
Issued by NWS

Home | Current Version | Previous Version | Text Only | Print | Product List | Glossary On
Versions: 1 2 3 4 5 6 7 8 9 10 11 12
383
FTUS46 KLOX 242336
TAFSBA
TAF
KSBA 242336Z 2500/2524 17006KT P6SM SCT250
     FM250200 VRB03KT P6SM SKC
     FM251700 14006KT P6SM BKN250
     FM252200 24006KT P6SM BKN250=

USA.gov is the U.S. government's official web portal to all federal, state and local government web resources and services.